Time;durP1;ratioP1;P1;durP2;ratioP2;P2;SDS_P1;SDS_P2;PMS_P1;PMS_P2;Temp;Humidity;BMP_temperature;BMP_pressure;BME280_temperature;BME280_humidity;BME280_pressure;Samples;Min_cycle;Max_cycle;Signal;HPM_P1;HPM_P2
2021/03/27 00:02:20;;;;;;;20.53;7.63;;;;;;;;;;6211169;23;20187;-88
2021/03/27 00:05:26;;;;;;;16.33;7.20;;;;;;;;;;6210657;23;20174;-89
2021/03/27 00:08:37;;;;;;;20.57;8.00;;;;;;;;;;6209876;23;20195;-89
2021/03/27 00:11:45;;;;;;;18.10;8.03;;;;;;;;;;6211284;23;20175;-88
2021/03/27 00:14:52;;;;;;;20.23;7.37;;;;;;;;;;6210791;23;20647;-89
2021/03/27 00:17:59;;;;;;;19.43;6.83;;;;;;;;;;6210173;23;20198;-87
2021/03/27 00:21:06;;;;;;;16.17;6.77;;;;;;;;;;6210747;23;20179;-88
2021/03/27 00:24:14;;;;;;;15.93;8.00;;;;;;;;;;6210379;22;20248;-87
2021/03/27 00:27:20;;;;;;;18.73;8.20;;;;;;;;;;6209749;23;20242;-88
2021/03/27 00:30:26;;;;;;;17.37;6.87;;;;;;;;;;6211032;23;20191;-88
2021/03/27 00:33:33;;;;;;;17.63;6.60;;;;;;;;;;6210034;23;20183;-87
2021/03/27 00:36:39;;;;;;;19.93;7.87;;;;;;;;;;6210384;23;20352;-88
2021/03/27 00:39:45;;;;;;;19.63;6.97;;;;;;;;;;6209279;23;20222;-89
2021/03/27 00:42:50;;;;;;;19.77;8.17;;;;;;;;;;6210124;23;20166;-89
2021/03/27 00:45:56;;;;;;;21.83;8.30;;;;;;;;;;6208699;23;20276;-86
2021/03/27 00:49:05;;;;;;;21.07;7.90;;;;;;;;;;6209697;23;20174;-88
2021/03/27 00:52:11;;;;;;;18.57;7.67;;;;;;;;;;6210142;23;20170;-88
2021/03/27 00:55:20;;;;;;;19.10;7.50;;;;;;;;;;6179820;22;20191;-88
2021/03/27 00:58:28;;;;;;;20.63;8.10;;;;;;;;;;6179425;23;20243;-88
2021/03/27 01:01:37;;;;;;;18.27;7.30;;;;;;;;;;6180460;23;20172;-88
2021/03/27 01:05:04;;;;;;;21.13;7.00;;;;;;;;;;6198299;22;20168;-88
2021/03/27 01:08:50;;;;;;;19.47;6.97;;;;;;;;;;6136766;23;20173;-87
2021/03/27 01:12:15;;;;;;;20.57;7.27;;;;;;;;;;6142438;23;20291;-87
2021/03/27 01:15:24;;;;;;;18.30;6.97;;;;;;;;;;6178546;23;20187;-87
2021/03/27 01:18:33;;;;;;;16.17;6.70;;;;;;;;;;6179464;22;20232;-87
2021/03/27 01:21:40;;;;;;;19.23;6.73;;;;;;;;;;6180590;23;20176;-88
2021/03/27 01:24:45;;;;;;;16.47;6.50;;;;;;;;;;6181141;23;20172;-88
2021/03/27 01:27:53;;;;;;;16.57;6.37;;;;;;;;;;6180217;23;20279;-89
2021/03/27 01:31:03;;;;;;;16.90;6.67;;;;;;;;;;6179985;23;20180;-87
2021/03/27 01:34:12;;;;;;;21.10;7.17;;;;;;;;;;6179960;23;20171;-88
2021/03/27 01:37:18;;;;;;;15.60;6.40;;;;;;;;;;6180249;23;20159;-88
2021/03/27 01:40:27;;;;;;;14.30;6.63;;;;;;;;;;6180823;23;20674;-88
2021/03/27 01:43:38;;;;;;;16.10;6.73;;;;;;;;;;6179828;23;20176;-88
2021/03/27 01:46:59;;;;;;;18.80;7.37;;;;;;;;;;6180488;23;20335;-88
2021/03/27 01:50:11;;;;;;;23.57;6.90;;;;;;;;;;6180262;23;20171;-88
2021/03/27 01:53:22;;;;;;;17.07;7.20;;;;;;;;;;6191327;23;20186;-88
2021/03/27 01:56:32;;;;;;;20.10;6.23;;;;;;;;;;6211074;23;20536;-87
2021/03/27 01:59:38;;;;;;;16.40;6.40;;;;;;;;;;6213216;23;20208;-88
2021/03/27 02:02:46;;;;;;;16.87;6.80;;;;;;;;;;6212185;23;20179;-86
2021/03/27 02:05:56;;;;;;;18.80;6.90;;;;;;;;;;6212648;23;20196;-89
2021/03/27 02:09:06;;;;;;;13.40;6.30;;;;;;;;;;6211663;23;20167;-89
2021/03/27 02:12:13;;;;;;;14.27;6.63;;;;;;;;;;6212378;23;20167;-88
2021/03/27 02:15:21;;;;;;;20.33;6.90;;;;;;;;;;6212679;23;20171;-87
2021/03/27 02:18:30;;;;;;;17.90;6.40;;;;;;;;;;6211742;23;20672;-88
2021/03/27 02:21:42;;;;;;;14.10;6.60;;;;;;;;;;6229973;23;20231;-87
2021/03/27 02:25:02;;;;;;;15.73;6.77;;;;;;;;;;6211346;23;20211;-87
2021/03/27 02:28:12;;;;;;;18.47;6.80;;;;;;;;;;6212668;22;20163;-89
2021/03/27 02:31:20;;;;;;;17.80;7.17;;;;;;;;;;6211063;22;20163;-88
2021/03/27 02:34:28;;;;;;;17.90;6.90;;;;;;;;;;6210496;23;20239;-88
2021/03/27 02:37:36;;;;;;;14.83;6.50;;;;;;;;;;6211468;23;20194;-87
2021/03/27 02:40:43;;;;;;;15.37;6.50;;;;;;;;;;6210471;23;20203;-87
2021/03/27 02:43:51;;;;;;;17.17;6.80;;;;;;;;;;6210010;23;20151;-88
2021/03/27 02:47:00;;;;;;;20.53;7.10;;;;;;;;;;6220359;22;20175;-88
2021/03/27 02:53:44;;;;;;;18.53;7.00;;;;;;;;;;6213676;23;20201;-88
2021/03/27 02:56:53;;;;;;;15.50;6.93;;;;;;;;;;6227105;22;20175;-87
2021/03/27 03:00:01;;;;;;;16.53;7.07;;;;;;;;;;6227474;22;20171;-87
2021/03/27 03:03:12;;;;;;;16.87;7.00;;;;;;;;;;6228162;22;20183;-87
2021/03/27 03:06:29;;;;;;;18.00;7.03;;;;;;;;;;6227074;22;20190;-86
2021/03/27 03:09:36;;;;;;;15.97;6.70;;;;;;;;;;6226811;23;20202;-87
2021/03/27 03:12:43;;;;;;;16.77;6.77;;;;;;;;;;6228592;23;20235;-88
2021/03/27 03:15:50;;;;;;;17.37;6.60;;;;;;;;;;6227955;23;20211;-87
2021/03/27 03:18:59;;;;;;;14.77;7.00;;;;;;;;;;6228271;23;20840;-87
2021/03/27 03:22:07;;;;;;;18.33;7.17;;;;;;;;;;6227714;23;20183;-87
2021/03/27 03:25:14;;;;;;;16.60;7.20;;;;;;;;;;6224099;23;20175;-87
2021/03/27 03:28:27;;;;;;;16.07;7.33;;;;;;;;;;6225269;23;20171;-87
2021/03/27 03:31:49;;;;;;;15.03;6.53;;;;;;;;;;6225971;23;20233;-85
2021/03/27 03:34:59;;;;;;;16.80;7.17;;;;;;;;;;6226305;23;20756;-87
2021/03/27 03:38:13;;;;;;;22.80;7.07;;;;;;;;;;6224718;23;20213;-86
2021/03/27 03:41:31;;;;;;;16.77;7.20;;;;;;;;;;6225180;23;20171;-88
2021/03/27 03:44:49;;;;;;;16.10;6.23;;;;;;;;;;6224893;23;20195;-88
2021/03/27 03:48:02;;;;;;;12.33;5.93;;;;;;;;;;6224727;23;20211;-87
2021/03/27 03:51:10;;;;;;;19.90;7.37;;;;;;;;;;6225107;23;20222;-86
2021/03/27 03:54:21;;;;;;;13.30;6.70;;;;;;;;;;6225462;23;20179;-87
2021/03/27 03:57:37;;;;;;;17.27;7.40;;;;;;;;;;6224685;23;20183;-88
2021/03/27 04:00:45;;;;;;;14.23;6.47;;;;;;;;;;6225182;23;20174;-88
2021/03/27 04:03:59;;;;;;;17.80;6.70;;;;;;;;;;6224931;23;20267;-88
2021/03/27 04:07:05;;;;;;;17.40;7.30;;;;;;;;;;6224420;23;20175;-86
2021/03/27 04:10:13;;;;;;;15.10;7.10;;;;;;;;;;6225196;23;20159;-87
2021/03/27 04:13:22;;;;;;;17.87;7.53;;;;;;;;;;6225429;23;20214;-87
2021/03/27 04:16:28;;;;;;;18.10;7.00;;;;;;;;;;6224974;23;20183;-88
2021/03/27 04:19:33;;;;;;;14.80;6.70;;;;;;;;;;6225483;23;20530;-87
2021/03/27 04:22:41;;;;;;;17.80;6.93;;;;;;;;;;6225151;23;20170;-87
2021/03/27 04:25:49;;;;;;;14.60;6.43;;;;;;;;;;6224842;23;20216;-86
2021/03/27 04:29:08;;;;;;;21.43;7.00;;;;;;;;;;6225129;23;20213;-88
2021/03/27 04:32:27;;;;;;;15.37;6.47;;;;;;;;;;6224677;23;20171;-88
2021/03/27 04:35:46;;;;;;;13.77;6.57;;;;;;;;;;6223849;23;20191;-87
2021/03/27 04:38:55;;;;;;;15.37;6.60;;;;;;;;;;6224475;23;20191;-88
2021/03/27 04:42:01;;;;;;;17.90;6.70;;;;;;;;;;6225417;23;20224;-88
2021/03/27 04:45:09;;;;;;;18.60;6.90;;;;;;;;;;6225002;23;20191;-87
2021/03/27 04:48:17;;;;;;;18.43;7.10;;;;;;;;;;6224496;23;20219;-87
2021/03/27 04:51:35;;;;;;;15.47;6.80;;;;;;;;;;6225718;23;20171;-88
2021/03/27 04:54:47;;;;;;;15.77;6.67;;;;;;;;;;6224600;23;20194;-87
2021/03/27 04:58:00;;;;;;;15.30;7.17;;;;;;;;;;6225479;23;20167;-88
2021/03/27 05:01:20;;;;;;;21.83;6.87;;;;;;;;;;6224194;23;20670;-87
2021/03/27 05:04:29;;;;;;;14.80;6.57;;;;;;;;;;6225315;23;20187;-88
2021/03/27 05:07:39;;;;;;;16.17;6.63;;;;;;;;;;6224716;23;20194;-88
2021/03/27 05:10:49;;;;;;;14.10;6.70;;;;;;;;;;6225156;23;20669;-87
2021/03/27 05:13:58;;;;;;;15.10;6.90;;;;;;;;;;6224431;23;20226;-87
2021/03/27 05:17:06;;;;;;;21.60;7.43;;;;;;;;;;6224310;23;20226;-87
2021/03/27 05:20:17;;;;;;;18.67;7.03;;;;;;;;;;6225515;23;20206;-87
2021/03/27 05:23:29;;;;;;;18.73;6.43;;;;;;;;;;6225815;23;20187;-87
2021/03/27 05:26:41;;;;;;;19.93;6.70;;;;;;;;;;6225398;23;20203;-87
2021/03/27 05:29:51;;;;;;;18.93;7.00;;;;;;;;;;6225016;23;20172;-86
2021/03/27 05:33:19;;;;;;;19.97;7.10;;;;;;;;;;6224811;23;20175;-87
2021/03/27 05:36:29;;;;;;;23.13;6.47;;;;;;;;;;6225730;23;20207;-87
2021/03/27 05:39:36;;;;;;;16.87;6.87;;;;;;;;;;6225661;23;20228;-87
2021/03/27 05:42:58;;;;;;;17.93;7.10;;;;;;;;;;6224366;23;20279;-87
2021/03/27 05:46:21;;;;;;;14.67;6.33;;;;;;;;;;6226335;23;20206;-86
2021/03/27 05:49:48;;;;;;;17.70;6.87;;;;;;;;;;6225446;23;20238;-87
2021/03/27 05:53:06;;;;;;;14.50;6.93;;;;;;;;;;6225038;23;20330;-87
2021/03/27 05:56:25;;;;;;;16.20;6.83;;;;;;;;;;6207014;23;20243;-85
2021/03/27 05:59:54;;;;;;;15.80;7.10;;;;;;;;;;6208221;23;20210;-86
2021/03/27 06:03:13;;;;;;;16.23;6.67;;;;;;;;;;6185078;23;20190;-88
2021/03/27 06:06:32;;;;;;;16.90;7.90;;;;;;;;;;6207479;23;20226;-88
2021/03/27 06:09:51;;;;;;;14.73;7.23;;;;;;;;;;6207244;23;20190;-87
2021/03/27 06:13:20;;;;;;;18.10;7.50;;;;;;;;;;6207725;23;20240;-88
2021/03/27 06:16:36;;;;;;;14.40;6.93;;;;;;;;;;6208348;23;20190;-87
2021/03/27 06:20:02;;;;;;;15.40;7.43;;;;;;;;;;6206082;23;20232;-86
2021/03/27 06:23:16;;;;;;;25.00;8.10;;;;;;;;;;6194598;23;20206;-89
2021/03/27 06:26:32;;;;;;;13.80;6.90;;;;;;;;;;6207705;23;20184;-88
2021/03/27 06:29:51;;;;;;;16.00;6.73;;;;;;;;;;6207674;23;20218;-88
2021/03/27 06:33:15;;;;;;;25.43;8.77;;;;;;;;;;6207947;23;20264;-89
2021/03/27 06:36:41;;;;;;;26.10;8.20;;;;;;;;;;6208151;23;20170;-89
2021/03/27 06:40:04;;;;;;;17.87;7.03;;;;;;;;;;6208139;23;20195;-87
2021/03/27 06:43:28;;;;;;;22.40;8.20;;;;;;;;;;6209495;23;20223;-87
2021/03/27 06:46:43;;;;;;;18.87;7.20;;;;;;;;;;6208309;23;20490;-87
2021/03/27 06:50:02;;;;;;;17.20;7.30;;;;;;;;;;6209119;23;20207;-88
2021/03/27 06:53:13;;;;;;;20.83;7.97;;;;;;;;;;6227478;23;20269;-88
2021/03/27 06:56:48;;;;;;;14.47;6.80;;;;;;;;;;6208511;23;20179;-88
2021/03/27 07:00:14;;;;;;;15.30;7.00;;;;;;;;;;6148736;23;20189;-87
2021/03/27 07:03:40;;;;;;;15.30;6.80;;;;;;;;;;6208567;23;20172;-87
2021/03/27 07:06:59;;;;;;;24.70;7.20;;;;;;;;;;6208160;23;20172;-89
2021/03/27 07:10:11;;;;;;;17.30;6.63;;;;;;;;;;6209899;23;20171;-89
2021/03/27 07:13:19;;;;;;;14.90;6.47;;;;;;;;;;6227391;23;20623;-88
2021/03/27 07:16:31;;;;;;;18.07;6.87;;;;;;;;;;6207736;23;20179;-88
2021/03/27 07:19:59;;;;;;;17.13;6.73;;;;;;;;;;6208592;23;20191;-88
2021/03/27 07:23:18;;;;;;;16.83;7.07;;;;;;;;;;6209720;23;20237;-89
2021/03/27 07:26:56;;;;;;;18.57;7.27;;;;;;;;;;6210011;23;20167;-88
2021/03/27 07:30:12;;;;;;;17.97;7.40;;;;;;;;;;6209484;23;20187;-89
2021/03/27 07:33:29;;;;;;;16.13;7.00;;;;;;;;;;6209102;23;20215;-88
2021/03/27 07:36:40;;;;;;;17.23;6.73;;;;;;;;;;6208250;23;20283;-88
2021/03/27 07:40:08;;;;;;;16.47;7.97;;;;;;;;;;6209477;23;20171;-89
2021/03/27 07:43:31;;;;;;;19.33;8.63;;;;;;;;;;6209548;23;20188;-88
2021/03/27 07:46:54;;;;;;;18.30;8.03;;;;;;;;;;6208609;23;20191;-88
2021/03/27 07:50:19;;;;;;;16.97;8.17;;;;;;;;;;6210048;23;20175;-87
2021/03/27 07:53:33;;;;;;;18.30;8.73;;;;;;;;;;6208459;23;20206;-88
2021/03/27 07:56:43;;;;;;;19.33;8.23;;;;;;;;;;6208365;23;20171;-88
2021/03/27 08:00:03;;;;;;;24.53;10.70;;;;;;;;;;6210228;23;20159;-88
2021/03/27 08:03:33;;;;;;;26.53;9.87;;;;;;;;;;6227534;23;20168;-89
2021/03/27 08:06:46;;;;;;;16.67;7.87;;;;;;;;;;6209282;23;20175;-88
2021/03/27 08:10:05;;;;;;;23.90;9.37;;;;;;;;;;6207770;23;20214;-88
2021/03/27 08:13:26;;;;;;;28.70;12.63;;;;;;;;;;6209092;23;20226;-88
2021/03/27 08:16:51;;;;;;;47.03;22.10;;;;;;;;;;6209403;23;20179;-88
2021/03/27 08:20:23;;;;;;;36.40;19.03;;;;;;;;;;6200337;23;20211;-88
2021/03/27 08:23:36;;;;;;;19.10;9.37;;;;;;;;;;6208121;23;20171;-87
2021/03/27 08:26:49;;;;;;;21.03;8.90;;;;;;;;;;6225131;23;20198;-88
2021/03/27 08:30:27;;;;;;;37.40;15.57;;;;;;;;;;6207093;23;20198;-88
2021/03/27 08:33:51;;;;;;;25.10;11.33;;;;;;;;;;6146996;23;20194;-89
2021/03/27 08:37:05;;;;;;;21.20;8.77;;;;;;;;;;6151432;23;20176;-89
2021/03/27 08:40:19;;;;;;;22.60;9.30;;;;;;;;;;6208782;23;20171;-89
2021/03/27 08:43:33;;;;;;;22.07;10.53;;;;;;;;;;6208461;23;20187;-88
2021/03/27 08:46:50;;;;;;;37.87;18.03;;;;;;;;;;6225953;23;20171;-89
2021/03/27 08:50:07;;;;;;;22.67;10.90;;;;;;;;;;6207244;23;20203;-89
2021/03/27 08:53:31;;;;;;;21.60;8.80;;;;;;;;;;6208384;23;20191;-89
2021/03/27 08:56:58;;;;;;;24.23;10.87;;;;;;;;;;6209789;23;20191;-87
2021/03/27 09:00:12;;;;;;;20.97;9.50;;;;;;;;;;6210059;23;20167;-87
2021/03/27 09:03:37;;;;;;;24.33;9.57;;;;;;;;;;6208103;23;20195;-88
2021/03/27 09:06:57;;;;;;;30.33;9.90;;;;;;;;;;6207709;22;20668;-87
2021/03/27 09:10:21;;;;;;;23.57;9.97;;;;;;;;;;6208682;23;20215;-88
2021/03/27 09:13:41;;;;;;;17.00;7.33;;;;;;;;;;6207538;23;20281;-88
2021/03/27 09:17:07;;;;;;;17.43;8.20;;;;;;;;;;6208211;23;20171;-87
2021/03/27 09:20:22;;;;;;;22.10;9.37;;;;;;;;;;6207292;23;20162;-88
2021/03/27 09:23:34;;;;;;;22.33;7.77;;;;;;;;;;6208944;23;20167;-88
2021/03/27 09:26:49;;;;;;;19.20;7.03;;;;;;;;;;6206944;23;20626;-88
2021/03/27 09:30:16;;;;;;;12.57;5.20;;;;;;;;;;6207541;23;20195;-88
2021/03/27 09:33:28;;;;;;;10.67;4.40;;;;;;;;;;6208518;23;20190;-87
2021/03/27 09:36:35;;;;;;;9.67;4.00;;;;;;;;;;6208752;23;20229;-89
2021/03/27 09:39:45;;;;;;;10.90;4.27;;;;;;;;;;6207573;23;20211;-86
2021/03/27 09:42:57;;;;;;;10.43;3.87;;;;;;;;;;6208907;23;20190;-88
2021/03/27 09:46:03;;;;;;;14.70;3.60;;;;;;;;;;6208279;23;20202;-88
2021/03/27 09:49:22;;;;;;;3.97;1.90;;;;;;;;;;6208271;23;20234;-88
2021/03/27 09:52:39;;;;;;;5.17;1.80;;;;;;;;;;6208981;23;20167;-87
2021/03/27 09:55:57;;;;;;;6.40;2.07;;;;;;;;;;6207471;23;20242;-89
2021/03/27 09:59:19;;;;;;;7.43;1.60;;;;;;;;;;6208154;23;20163;-87
2021/03/27 10:02:29;;;;;;;10.50;2.90;;;;;;;;;;6209727;23;20178;-88
2021/03/27 10:05:38;;;;;;;10.27;2.97;;;;;;;;;;6208631;23;20236;-89
2021/03/27 10:08:47;;;;;;;11.20;3.10;;;;;;;;;;6207306;23;20194;-90
2021/03/27 10:11:56;;;;;;;6.87;2.50;;;;;;;;;;6207632;23;20175;-88
2021/03/27 10:15:03;;;;;;;5.67;1.90;;;;;;;;;;6207799;23;20171;-87
2021/03/27 10:18:11;;;;;;;10.77;2.10;;;;;;;;;;6209640;23;20236;-88
2021/03/27 10:21:26;;;;;;;9.20;2.80;;;;;;;;;;6209717;23;20179;-87
2021/03/27 10:24:33;;;;;;;7.40;2.00;;;;;;;;;;6213892;23;20202;-86
2021/03/27 10:27:43;;;;;;;4.07;1.60;;;;;;;;;;6215402;23;20167;-89
2021/03/27 10:30:55;;;;;;;5.93;1.80;;;;;;;;;;6208721;23;20170;-88
2021/03/27 10:34:12;;;;;;;3.97;1.40;;;;;;;;;;6209351;23;20211;-89
2021/03/27 10:37:22;;;;;;;3.40;1.63;;;;;;;;;;6209731;23;20272;-88
2021/03/27 10:40:34;;;;;;;7.23;1.80;;;;;;;;;;6209334;23;20226;-88
2021/03/27 10:43:46;;;;;;;6.23;1.43;;;;;;;;;;6209456;23;20175;-88
2021/03/27 10:46:54;;;;;;;3.97;1.87;;;;;;;;;;6228314;23;20170;-89
2021/03/27 10:50:00;;;;;;;4.20;1.83;;;;;;;;;;6209987;23;20330;-86
2021/03/27 10:53:20;;;;;;;4.50;2.27;;;;;;;;;;6208489;23;20282;-86
2021/03/27 10:56:33;;;;;;;7.23;2.17;;;;;;;;;;6209034;23;20175;-87
2021/03/27 10:59:40;;;;;;;4.90;2.20;;;;;;;;;;6207204;23;20236;-87
2021/03/27 11:02:58;;;;;;;5.97;2.20;;;;;;;;;;6208054;23;20205;-86
2021/03/27 11:06:17;;;;;;;6.63;2.20;;;;;;;;;;6206813;23;20171;-88
2021/03/27 11:09:47;;;;;;;5.57;2.40;;;;;;;;;;6207773;23;20190;-88
2021/03/27 11:13:04;;;;;;;5.03;1.80;;;;;;;;;;6208002;23;20633;-88
2021/03/27 11:16:23;;;;;;;2.70;1.50;;;;;;;;;;6207296;23;20233;-88
2021/03/27 11:19:36;;;;;;;2.83;1.50;;;;;;;;;;6207482;23;20186;-88
2021/03/27 11:23:07;;;;;;;3.07;1.30;;;;;;;;;;6207932;23;20167;-88
2021/03/27 11:26:32;;;;;;;3.95;1.20;;;;;;;;;;6180979;23;20190;-87
2021/03/27 11:29:40;;;;;;;10.88;1.60;;;;;;;;;;6208148;23;20222;-89
2021/03/27 11:32:46;;;;;;;5.70;1.40;;;;;;;;;;6209210;23;20633;-89
2021/03/27 11:35:56;;;;;;;6.00;1.50;;;;;;;;;;6207413;23;20191;-87
2021/03/27 11:39:05;;;;;;;4.03;1.40;;;;;;;;;;6213169;23;20166;-88
2021/03/27 11:42:20;;;;;;;3.88;1.40;;;;;;;;;;6209593;23;20650;-89
2021/03/27 11:45:31;;;;;;;1.95;1.20;;;;;;;;;;6208942;23;20715;-88
2021/03/27 11:48:39;;;;;;;1.38;0.90;;;;;;;;;;6207615;23;20567;-89
2021/03/27 11:51:49;;;;;;;2.22;1.00;;;;;;;;;;6207566;23;20227;-90
2021/03/27 11:54:55;;;;;;;2.85;1.00;;;;;;;;;;6206651;23;20187;-88
2021/03/27 11:58:03;;;;;;;2.30;1.25;;;;;;;;;;6202182;23;20243;-89
2021/03/27 12:01:09;;;;;;;3.60;1.10;;;;;;;;;;6201811;23;20626;-88
2021/03/27 12:04:23;;;;;;;2.00;1.23;;;;;;;;;;6204362;23;20195;-89
2021/03/27 12:07:33;;;;;;;1.55;1.10;;;;;;;;;;6202731;23;20175;-88
2021/03/27 12:10:40;;;;;;;1.00;0.90;;;;;;;;;;6202915;23;20209;-88
2021/03/27 12:13:51;;;;;;;1.70;0.98;;;;;;;;;;6203331;23;20249;-87
2021/03/27 12:17:00;;;;;;;1.10;0.90;;;;;;;;;;6202869;23;20167;-88
2021/03/27 12:20:21;;;;;;;1.77;1.00;;;;;;;;;;6202678;23;20171;-88
2021/03/27 12:23:29;;;;;;;1.75;0.90;;;;;;;;;;6203877;23;20551;-87
2021/03/27 12:26:40;;;;;;;1.42;0.90;;;;;;;;;;6203414;23;20518;-89
2021/03/27 12:29:46;;;;;;;2.03;0.95;;;;;;;;;;6203012;23;20190;-89
2021/03/27 12:32:54;;;;;;;3.72;1.30;;;;;;;;;;6202680;23;20183;-89
2021/03/27 12:36:05;;;;;;;4.78;1.13;;;;;;;;;;6202021;23;20172;-88
2021/03/27 12:39:15;;;;;;;4.88;1.15;;;;;;;;;;6202665;23;20206;-89
2021/03/27 12:42:22;;;;;;;3.58;1.30;;;;;;;;;;6204949;23;20218;-88
2021/03/27 12:45:27;;;;;;;2.97;1.30;;;;;;;;;;6202458;23;20171;-90
2021/03/27 12:48:38;;;;;;;4.85;1.70;;;;;;;;;;6202818;23;20190;-89
2021/03/27 12:51:45;;;;;;;2.15;0.98;;;;;;;;;;6202468;23;20171;-89
2021/03/27 12:54:56;;;;;;;6.18;1.10;;;;;;;;;;6201388;23;20202;-91
2021/03/27 12:58:04;;;;;;;2.88;1.08;;;;;;;;;;6200589;23;20226;-90
2021/03/27 13:01:20;;;;;;;4.22;1.02;;;;;;;;;;6200360;23;20511;-89
2021/03/27 13:04:40;;;;;;;3.90;1.15;;;;;;;;;;6200124;23;20175;-88
2021/03/27 13:07:51;;;;;;;5.53;1.17;;;;;;;;;;6201406;23;20214;-90
2021/03/27 13:11:08;;;;;;;3.78;1.00;;;;;;;;;;6201030;23;20626;-89
2021/03/27 13:14:32;;;;;;;4.10;1.20;;;;;;;;;;6201131;23;20218;-89
2021/03/27 13:17:43;;;;;;;4.57;1.10;;;;;;;;;;6200972;23;20175;-88
2021/03/27 13:20:51;;;;;;;2.80;1.20;;;;;;;;;;6202115;23;20203;-88
2021/03/27 13:23:58;;;;;;;3.45;1.23;;;;;;;;;;6201969;23;20171;-90
2021/03/27 13:27:06;;;;;;;3.78;1.13;;;;;;;;;;6201806;23;20184;-88
2021/03/27 13:30:18;;;;;;;3.17;1.08;;;;;;;;;;6221167;23;20191;-90
2021/03/27 13:33:25;;;;;;;3.53;0.85;;;;;;;;;;6203385;23;20210;-89
2021/03/27 13:36:31;;;;;;;4.93;1.20;;;;;;;;;;6202791;23;20250;-89
2021/03/27 13:39:38;;;;;;;6.50;1.20;;;;;;;;;;6202832;23;20625;-89
2021/03/27 13:42:45;;;;;;;3.13;1.10;;;;;;;;;;6203150;23;20175;-88
2021/03/27 13:45:52;;;;;;;5.97;1.52;;;;;;;;;;6201647;23;20166;-89
2021/03/27 13:49:04;;;;;;;2.47;1.08;;;;;;;;;;6201674;23;20247;-89
2021/03/27 13:52:11;;;;;;;2.33;0.95;;;;;;;;;;6205004;23;20217;-88
2021/03/27 13:55:29;;;;;;;1.98;1.10;;;;;;;;;;6203953;23;20203;-87
2021/03/27 13:58:36;;;;;;;4.70;1.10;;;;;;;;;;6205440;23;20171;-90
2021/03/27 14:01:43;;;;;;;2.20;1.08;;;;;;;;;;6203422;23;20194;-88
2021/03/27 14:04:51;;;;;;;3.17;0.80;;;;;;;;;;6204664;23;20194;-86
2021/03/27 14:08:02;;;;;;;2.45;0.90;;;;;;;;;;6204409;23;20171;-87
2021/03/27 14:11:11;;;;;;;4.35;1.20;;;;;;;;;;6204974;23;20206;-87
2021/03/27 14:14:19;;;;;;;4.78;1.17;;;;;;;;;;6203886;23;20167;-87
2021/03/27 14:17:31;;;;;;;9.75;1.40;;;;;;;;;;6203915;23;20226;-90
2021/03/27 14:20:41;;;;;;;6.63;1.02;;;;;;;;;;6204638;23;20170;-87
2021/03/27 14:23:59;;;;;;;3.10;1.10;;;;;;;;;;6204349;23;20186;-86
2021/03/27 14:27:17;;;;;;;3.28;0.82;;;;;;;;;;6203203;23;20183;-87
2021/03/27 14:30:37;;;;;;;5.63;1.27;;;;;;;;;;6203464;23;20191;-86
2021/03/27 14:33:50;;;;;;;1.95;1.20;;;;;;;;;;6202987;23;20252;-87
2021/03/27 14:37:09;;;;;;;5.78;2.20;;;;;;;;;;6202681;23;20248;-86
2021/03/27 14:40:28;;;;;;;2.70;1.40;;;;;;;;;;6202763;23;20210;-86
2021/03/27 14:43:52;;;;;;;2.53;1.13;;;;;;;;;;6204342;23;20171;-87
2021/03/27 14:47:15;;;;;;;2.90;1.00;;;;;;;;;;6202005;23;20171;-87
2021/03/27 14:50:24;;;;;;;2.87;1.47;;;;;;;;;;6203562;23;20242;-88
2021/03/27 14:53:32;;;;;;;3.80;1.75;;;;;;;;;;6203550;23;20253;-87
2021/03/27 14:56:39;;;;;;;3.22;1.27;;;;;;;;;;6219805;23;20175;-87
2021/03/27 14:59:45;;;;;;;2.90;1.00;;;;;;;;;;6219397;23;20214;-86
2021/03/27 15:02:58;;;;;;;3.15;1.20;;;;;;;;;;6220168;23;20175;-86
2021/03/27 15:06:17;;;;;;;2.63;1.25;;;;;;;;;;6220236;23;20299;-87
2021/03/27 15:09:30;;;;;;;1.45;1.00;;;;;;;;;;6220490;23;20271;-86
2021/03/27 15:12:37;;;;;;;3.95;1.30;;;;;;;;;;6218493;23;20183;-87
2021/03/27 15:15:46;;;;;;;2.53;1.50;;;;;;;;;;6217861;23;20170;-87
2021/03/27 15:18:53;;;;;;;2.55;1.38;;;;;;;;;;6218200;23;20171;-86
2021/03/27 15:22:08;;;;;;;1.90;1.05;;;;;;;;;;6219262;23;20178;-87
2021/03/27 15:28:47;;;;;;;3.45;1.38;;;;;;;;;;6219100;23;20192;-87
2021/03/27 15:31:54;;;;;;;2.25;1.20;;;;;;;;;;6217940;23;20167;-87
2021/03/27 15:35:05;;;;;;;3.75;1.00;;;;;;;;;;6218780;23;20213;-88
2021/03/27 15:38:20;;;;;;;2.95;1.20;;;;;;;;;;6218430;23;20179;-87
2021/03/27 15:41:27;;;;;;;2.53;1.20;;;;;;;;;;6220259;23;20172;-89
2021/03/27 15:44:32;;;;;;;2.53;1.17;;;;;;;;;;6218704;23;20203;-87
2021/03/27 15:47:39;;;;;;;4.05;1.10;;;;;;;;;;6219537;23;20174;-88
2021/03/27 15:50:49;;;;;;;3.47;1.30;;;;;;;;;;6219406;23;20588;-88
2021/03/27 15:54:02;;;;;;;1.85;1.00;;;;;;;;;;6220139;23;20394;-88
2021/03/27 15:57:24;;;;;;;4.00;1.10;;;;;;;;;;6219011;23;20166;-86
2021/03/27 16:00:39;;;;;;;4.43;1.10;;;;;;;;;;6219841;23;20163;-87
2021/03/27 16:03:58;;;;;;;3.15;1.05;;;;;;;;;;6219219;23;20222;-87
2021/03/27 16:07:06;;;;;;;3.75;1.00;;;;;;;;;;6217824;23;20514;-86
2021/03/27 16:10:18;;;;;;;3.38;0.90;;;;;;;;;;6219712;23;20194;-86
2021/03/27 16:13:33;;;;;;;1.93;0.87;;;;;;;;;;6220840;23;20655;-86
2021/03/27 16:17:00;;;;;;;3.00;1.10;;;;;;;;;;6220178;23;20203;-86
2021/03/27 16:20:08;;;;;;;5.37;1.00;;;;;;;;;;6219255;23;20192;-87
2021/03/27 16:23:21;;;;;;;4.80;1.10;;;;;;;;;;6220140;23;20163;-87
2021/03/27 16:26:45;;;;;;;2.87;0.90;;;;;;;;;;6220120;23;20205;-87
2021/03/27 16:29:57;;;;;;;3.25;1.05;;;;;;;;;;6219157;23;20194;-86
2021/03/27 16:33:15;;;;;;;2.23;1.07;;;;;;;;;;6220319;23;20187;-86
2021/03/27 16:36:25;;;;;;;1.85;0.90;;;;;;;;;;6219963;23;20187;-87
2021/03/27 16:39:45;;;;;;;4.25;1.08;;;;;;;;;;6221656;23;20210;-88
2021/03/27 16:42:56;;;;;;;5.53;1.27;;;;;;;;;;6221670;23;20210;-89
2021/03/27 16:46:18;;;;;;;3.55;1.00;;;;;;;;;;6220103;23;20509;-86
2021/03/27 16:49:30;;;;;;;1.83;1.00;;;;;;;;;;6224813;23;20226;-89
2021/03/27 16:52:37;;;;;;;2.70;1.20;;;;;;;;;;6222804;23;20218;-90
2021/03/27 16:55:48;;;;;;;2.90;0.82;;;;;;;;;;6204301;23;20206;-87
2021/03/27 16:59:02;;;;;;;2.37;1.00;;;;;;;;;;6203826;23;20226;-87
2021/03/27 17:02:22;;;;;;;2.58;1.10;;;;;;;;;;6205964;23;20172;-87
2021/03/27 17:05:38;;;;;;;2.40;1.05;;;;;;;;;;6204394;23;20501;-88
2021/03/27 17:08:49;;;;;;;4.45;1.23;;;;;;;;;;6203289;23;22118;-88
2021/03/27 17:12:08;;;;;;;4.60;1.17;;;;;;;;;;6202709;23;20167;-88
2021/03/27 17:15:15;;;;;;;3.10;1.30;;;;;;;;;;6202916;23;20171;-88
2021/03/27 17:18:40;;;;;;;3.70;1.30;;;;;;;;;;6202635;23;20175;-89
2021/03/27 17:21:56;;;;;;;4.63;1.13;;;;;;;;;;6203204;23;20183;-89
2021/03/27 17:25:08;;;;;;;11.93;1.43;;;;;;;;;;6203475;23;20175;-88
2021/03/27 17:28:18;;;;;;;7.23;1.13;;;;;;;;;;6203482;23;20210;-88
2021/03/27 17:31:25;;;;;;;4.17;1.63;;;;;;;;;;6224325;23;20166;-88
2021/03/27 17:34:35;;;;;;;3.30;1.00;;;;;;;;;;6204865;23;20171;-88
2021/03/27 17:37:42;;;;;;;3.10;1.23;;;;;;;;;;6205456;23;20691;-89
2021/03/27 17:41:07;;;;;;;5.47;1.70;;;;;;;;;;6203577;23;20206;-88
2021/03/27 17:44:19;;;;;;;3.17;1.50;;;;;;;;;;6201628;23;20214;-88
2021/03/27 17:47:27;;;;;;;6.37;1.17;;;;;;;;;;6201053;23;20658;-88
2021/03/27 17:50:41;;;;;;;5.17;1.53;;;;;;;;;;6202350;23;20191;-88
2021/03/27 17:53:48;;;;;;;5.60;1.43;;;;;;;;;;6209334;23;20279;-87
2021/03/27 17:56:58;;;;;;;14.87;3.63;;;;;;;;;;6221621;23;20226;-88
2021/03/27 18:00:09;;;;;;;8.70;1.43;;;;;;;;;;6219741;23;20171;-89
2021/03/27 18:03:20;;;;;;;7.93;1.70;;;;;;;;;;6221402;23;20199;-88
2021/03/27 18:06:34;;;;;;;5.63;2.20;;;;;;;;;;6221174;23;20230;-88
2021/03/27 18:09:41;;;;;;;4.10;1.30;;;;;;;;;;6219433;23;20226;-88
2021/03/27 18:12:51;;;;;;;3.80;1.40;;;;;;;;;;6221962;23;20167;-89
2021/03/27 18:16:03;;;;;;;5.35;1.90;;;;;;;;;;6221235;23;20170;-88
2021/03/27 18:19:13;;;;;;;9.83;2.83;;;;;;;;;;6224132;23;20228;-88
2021/03/27 18:22:28;;;;;;;10.70;3.07;;;;;;;;;;6219995;23;20610;-88
2021/03/27 18:25:35;;;;;;;6.27;2.50;;;;;;;;;;6220613;23;20236;-86
2021/03/27 18:28:46;;;;;;;7.07;2.93;;;;;;;;;;6220249;23;20280;-88
2021/03/27 18:31:57;;;;;;;6.43;2.37;;;;;;;;;;6222149;23;20171;-90
2021/03/27 18:35:04;;;;;;;7.13;2.83;;;;;;;;;;6221668;23;20167;-89
2021/03/27 18:38:24;;;;;;;8.73;2.23;;;;;;;;;;6220759;23;20172;-87
2021/03/27 18:41:31;;;;;;;8.20;2.27;;;;;;;;;;6222732;23;20168;-88
2021/03/27 18:44:45;;;;;;;9.37;2.77;;;;;;;;;;6224255;23;20203;-87
2021/03/27 18:48:01;;;;;;;11.80;3.90;;;;;;;;;;6222704;23;20508;-89
2021/03/27 18:51:10;;;;;;;14.60;5.00;;;;;;;;;;6223417;23;20838;-90
2021/03/27 18:54:17;;;;;;;33.37;13.47;;;;;;;;;;6222931;23;20658;-88
2021/03/27 18:57:25;;;;;;;25.37;8.97;;;;;;;;;;6223055;23;20209;-88
2021/03/27 19:00:36;;;;;;;22.53;8.93;;;;;;;;;;6222379;23;20163;-87
2021/03/27 19:03:40;;;;;;;34.73;12.50;;;;;;;;;;6225015;23;20210;-89
2021/03/27 19:06:47;;;;;;;28.33;9.73;;;;;;;;;;6223029;23;20179;-87
2021/03/27 19:09:53;;;;;;;16.23;5.17;;;;;;;;;;6221959;23;20274;-86
2021/03/27 19:13:05;;;;;;;8.53;3.50;;;;;;;;;;6220058;23;20210;-86
2021/03/27 19:16:12;;;;;;;8.33;3.77;;;;;;;;;;6221253;23;20223;-87